Big River, Canada
Current Conditions -  °F | °C
As of 6:00 PM on Wednesday 26 Nov 2014 (Local Time) from CYLJ Reporting Station
Light Snow Light Snow  
Wind Chill: -2°   Ceiling: 3000
Heat Index: -2°   Visibility: 10mi
Dew Point: -6°   Wind: 2mph
Humidity: 85%   Direction: NA
Pressure: 30.25"   Gusts: NA
Location:  53.83°N, 107.03°W
Report Text: CYLJ 270000Z VRB02KT 10SM -SN SCT015 OVC030 M19/M21 A3025 RMK SC3SC5 SN COV/MUCH LOOSE/LAST OB/NXT 271200 UTC SLP304
Loading
Personal Weather Stations






























Interactive Weather Map New forecast layout! Learn more

10-Day Weather Forecast

Advertisements
Track Severe Weather on mobile